createdAt,value
2022-10-02T00:02:12.768Z,1.10
2022-10-02T00:04:44.211Z,1.00
2022-10-02T00:07:13.077Z,0.90
2022-10-02T00:09:55.550Z,1.02
2022-10-02T00:12:26.311Z,0.98
2022-10-02T00:15:00.553Z,0.85
2022-10-02T00:17:36.297Z,1.20
2022-10-02T00:20:12.720Z,1.10
2022-10-02T00:23:02.664Z,1.42
2022-10-02T00:25:40.652Z,1.27
2022-10-02T00:28:32.070Z,1.10
2022-10-02T00:31:08.037Z,1.10
2022-10-02T00:33:51.836Z,1.45
2022-10-02T00:36:37.585Z,1.02
2022-10-02T00:39:45.007Z,1.00
2022-10-02T00:42:22.359Z,1.27
2022-10-02T00:45:00.713Z,1.00
2022-10-02T00:47:40.214Z,0.73
2022-10-02T00:50:38.023Z,1.20
2022-10-02T00:53:13.816Z,1.10
2022-10-02T00:56:01.144Z,0.90
2022-10-02T00:58:49.086Z,1.20
2022-10-02T01:01:24.298Z,0.80
2022-10-02T01:03:54.529Z,0.98
2022-10-02T01:06:25.732Z,1.15
2022-10-02T01:08:52.948Z,1.23
2022-10-02T01:11:26.281Z,1.17
2022-10-02T01:13:53.740Z,1.20
2022-10-02T01:16:20.880Z,0.73
2022-10-02T01:18:48.278Z,1.30
2022-10-02T01:21:31.411Z,1.00
2022-10-02T01:24:26.376Z,1.00
2022-10-02T01:26:53.539Z,1.20
2022-10-02T01:29:20.476Z,1.33
2022-10-02T01:31:47.532Z,1.45
2022-10-02T01:34:15.095Z,1.17
2022-10-02T01:36:42.191Z,1.90
2022-10-02T01:39:09.557Z,1.40
2022-10-02T01:41:43.020Z,1.30
2022-10-02T01:44:11.703Z,1.30
2022-10-02T01:46:47.983Z,1.23
2022-10-02T01:49:14.898Z,1.20
2022-10-02T01:51:53.525Z,1.10
2022-10-02T01:54:44.492Z,1.15
2022-10-02T01:57:58.029Z,1.55
2022-10-02T02:00:26.333Z,1.20
2022-10-02T02:03:12.744Z,1.27
2022-10-02T02:05:58.542Z,1.20
2022-10-02T02:08:31.334Z,1.05
2022-10-02T02:11:09.542Z,0.93
2022-10-02T02:13:51.105Z,1.40
2022-10-02T02:16:23.487Z,0.90
2022-10-02T02:19:33.758Z,1.10
2022-10-02T02:22:28.105Z,0.98
2022-10-02T02:25:20.037Z,0.90
2022-10-02T02:27:54.267Z,1.10
2022-10-02T02:30:23.865Z,1.40
2022-10-02T02:32:55.778Z,0.82
2022-10-02T02:35:27.223Z,0.82
2022-10-02T02:38:03.612Z,1.10
2022-10-02T02:40:32.983Z,1.30
2022-10-02T02:43:23.143Z,1.42
2022-10-02T02:45:57.581Z,1.42
2022-10-02T02:48:28.070Z,1.10
2022-10-02T02:51:00.361Z,1.63
2022-10-02T02:53:36.810Z,1.45
2022-10-02T02:56:08.205Z,2.10
2022-10-02T02:58:48.723Z,1.27
2022-10-02T03:01:15.793Z,1.67
2022-10-02T03:03:42.849Z,1.30
2022-10-02T03:06:15.878Z,1.73
2022-10-02T03:08:44.163Z,1.30
2022-10-02T03:11:51.022Z,1.25
2022-10-02T03:14:39.931Z,1.30
2022-10-02T03:17:31.549Z,1.27
2022-10-02T03:20:11.996Z,1.15
2022-10-02T03:22:53.171Z,1.27
2022-10-02T03:25:34.829Z,1.77
2022-10-02T03:28:10.957Z,1.10
2022-10-02T03:30:38.818Z,1.10
2022-10-02T03:33:07.476Z,1.20
2022-10-02T03:35:34.900Z,1.40
2022-10-02T03:38:09.923Z,1.50
2022-10-02T03:40:36.876Z,1.40
2022-10-02T03:43:04.676Z,1.30
2022-10-02T03:45:51.327Z,1.13
2022-10-02T03:48:18.944Z,0.95
2022-10-02T03:50:46.237Z,1.08
2022-10-02T03:53:22.058Z,1.17
2022-10-02T03:56:09.300Z,1.13
2022-10-02T03:58:41.127Z,0.90
2022-10-02T04:01:13.929Z,1.30
2022-10-02T04:03:49.330Z,0.90
2022-10-02T04:06:22.747Z,1.00
2022-10-02T04:09:06.580Z,1.02
2022-10-02T04:11:37.127Z,1.52
2022-10-02T04:14:13.292Z,1.00
2022-10-02T04:16:46.790Z,1.20
2022-10-02T04:19:32.673Z,1.40
2022-10-02T04:22:24.698Z,1.35
2022-10-02T04:25:02.241Z,1.20
2022-10-02T04:27:38.372Z,1.27
2022-10-02T04:30:18.135Z,1.23
2022-10-02T04:32:45.779Z,1.40
2022-10-02T04:35:14.138Z,1.50
2022-10-02T04:37:41.081Z,1.38
2022-10-02T04:40:32.285Z,1.10
2022-10-02T04:43:23.959Z,1.35
2022-10-02T04:46:02.839Z,1.60
2022-10-02T04:49:01.571Z,1.70
2022-10-02T04:51:46.722Z,2.20
2022-10-02T04:54:25.736Z,1.90
2022-10-02T04:57:21.060Z,1.95
2022-10-02T04:59:57.185Z,2.03
2022-10-02T05:02:30.294Z,1.58
2022-10-02T05:05:40.963Z,2.05
2022-10-02T05:08:11.577Z,1.50
2022-10-02T05:11:06.885Z,1.90
2022-10-02T05:14:01.132Z,2.10
2022-10-02T05:16:50.114Z,2.28
2022-10-02T05:19:48.829Z,2.17
2022-10-02T05:22:40.953Z,1.85
2022-10-02T05:25:23.040Z,1.67
2022-10-02T05:28:02.085Z,1.63
2022-10-02T05:30:46.536Z,1.60
2022-10-02T05:33:32.286Z,1.63
2022-10-02T05:36:05.070Z,1.48
2022-10-02T05:38:53.240Z,1.60
2022-10-02T05:41:47.148Z,1.50
2022-10-02T05:44:22.377Z,1.30
2022-10-02T05:47:18.189Z,1.63
2022-10-02T05:50:00.694Z,1.98
2022-10-02T05:52:37.283Z,1.60
2022-10-02T05:55:26.778Z,1.50
2022-10-02T05:58:19.718Z,1.60
2022-10-02T06:01:02.645Z,1.60
2022-10-02T06:03:34.478Z,1.83
2022-10-02T06:06:10.249Z,1.40
2022-10-02T06:08:42.948Z,1.80
2022-10-02T06:11:35.968Z,1.52
2022-10-02T06:14:14.563Z,1.55
2022-10-02T06:16:54.280Z,1.33
2022-10-02T06:19:34.004Z,1.52
2022-10-02T06:22:09.276Z,1.60
2022-10-02T06:25:09.037Z,1.80
2022-10-02T06:27:43.177Z,1.48
2022-10-02T06:30:16.738Z,1.58
2022-10-02T06:33:19.978Z,1.33
2022-10-02T06:36:08.260Z,1.42
2022-10-02T06:38:58.911Z,1.65
2022-10-02T06:41:38.026Z,1.30
2022-10-02T06:44:22.642Z,1.15
2022-10-02T06:46:58.574Z,1.60
2022-10-02T06:49:28.457Z,1.20
2022-10-02T06:52:15.394Z,1.48
2022-10-02T06:55:31.948Z,1.75
2022-10-02T06:58:16.727Z,1.70
2022-10-02T07:00:52.142Z,1.45
2022-10-02T07:03:27.606Z,1.30
2022-10-02T07:06:16.443Z,1.20
2022-10-02T07:09:02.138Z,1.25
2022-10-02T07:12:07.405Z,1.27
2022-10-02T07:14:45.922Z,1.27
2022-10-02T07:17:34.439Z,1.48
2022-10-02T07:20:11.397Z,1.17
2022-10-02T07:23:07.723Z,1.60
2022-10-02T07:26:07.508Z,1.95
2022-10-02T07:28:50.856Z,1.30
2022-10-02T07:31:32.220Z,1.60
2022-10-02T07:33:59.787Z,1.58
2022-10-02T07:36:37.130Z,2.15
2022-10-02T07:39:28.585Z,1.85
2022-10-02T07:42:10.636Z,1.73
2022-10-02T07:44:43.668Z,1.77
2022-10-02T07:47:31.688Z,2.00
2022-10-02T07:50:07.950Z,1.98
2022-10-02T07:52:40.549Z,1.77
2022-10-02T07:55:22.161Z,2.38
2022-10-02T07:58:01.498Z,2.60
2022-10-02T08:00:32.450Z,2.35
2022-10-02T08:03:02.666Z,2.30
2022-10-02T08:05:50.582Z,2.17
2022-10-02T08:08:59.048Z,1.80
2022-10-02T08:11:37.680Z,2.55
2022-10-02T08:14:32.484Z,1.85
2022-10-02T08:17:08.880Z,2.58
2022-10-02T08:19:48.119Z,2.00
2022-10-02T08:22:29.432Z,1.85
2022-10-02T08:25:04.718Z,2.33
2022-10-02T08:27:55.529Z,2.13
2022-10-02T08:30:22.618Z,3.03
2022-10-02T08:32:49.534Z,2.38
2022-10-02T08:35:19.773Z,2.30
2022-10-02T08:38:10.289Z,2.63
2022-10-02T08:41:18.716Z,2.70
2022-10-02T08:44:14.966Z,2.17
2022-10-02T08:47:05.855Z,2.28
2022-10-02T08:50:02.511Z,2.05
2022-10-02T08:52:45.167Z,1.95
2022-10-02T08:55:34.086Z,2.53
2022-10-02T08:58:34.527Z,2.50
2022-10-02T09:01:21.548Z,2.20
2022-10-02T09:04:10.663Z,2.63
2022-10-02T09:06:40.432Z,2.40
2022-10-02T09:09:45.923Z,2.30
2022-10-02T09:12:15.772Z,2.17
2022-10-02T09:14:49.417Z,2.90
2022-10-02T09:17:19.267Z,1.60
2022-10-02T09:20:05.260Z,2.40
2022-10-02T09:22:46.503Z,2.40
2022-10-02T09:25:37.657Z,1.92
2022-10-02T09:28:23.496Z,2.53
2022-10-02T09:30:50.490Z,2.50
2022-10-02T09:33:46.496Z,2.38
2022-10-02T09:36:51.683Z,2.63
2022-10-02T09:39:43.537Z,2.22
2022-10-02T09:42:42.560Z,2.58
2022-10-02T09:45:18.284Z,2.20
2022-10-02T09:48:05.168Z,2.65
2022-10-02T09:50:45.488Z,4.10
2022-10-02T09:53:57.845Z,3.25
2022-10-02T09:56:24.830Z,3.17
2022-10-02T09:59:00.654Z,3.00
2022-10-02T10:01:40.803Z,2.47
2022-10-02T10:04:20.759Z,2.10
2022-10-02T10:07:00.126Z,2.22
2022-10-02T10:09:58.568Z,2.72
2022-10-02T10:12:38.722Z,2.15
2022-10-02T10:15:40.927Z,2.03
2022-10-02T10:18:09.784Z,2.53
2022-10-02T10:21:01.987Z,2.15
2022-10-02T10:23:57.717Z,1.40
2022-10-02T10:26:43.280Z,1.90
2022-10-02T10:29:28.761Z,2.28
2022-10-02T10:32:19.303Z,2.20
2022-10-02T10:34:55.777Z,2.35
2022-10-02T10:37:50.432Z,2.95
2022-10-02T10:40:38.492Z,2.13
2022-10-02T10:43:42.098Z,2.10
2022-10-02T10:46:12.308Z,1.85
2022-10-02T10:49:02.814Z,2.00
2022-10-02T10:51:59.565Z,2.20
2022-10-02T10:55:20.108Z,2.15
2022-10-02T10:58:15.953Z,1.95
2022-10-02T11:01:18.935Z,1.90
2022-10-02T11:04:20.185Z,2.00
2022-10-02T11:06:59.175Z,1.80
2022-10-02T11:09:50.665Z,2.03
2022-10-02T11:12:52.445Z,2.00
2022-10-02T11:15:41.009Z,1.73
2022-10-02T11:18:19.670Z,2.30
2022-10-02T11:20:52.759Z,1.70
2022-10-02T11:23:22.373Z,1.90
2022-10-02T11:26:01.437Z,2.15
2022-10-02T11:28:40.224Z,1.67
2022-10-02T11:31:35.331Z,1.70
2022-10-02T11:34:24.853Z,1.73
2022-10-02T11:36:56.283Z,1.33
2022-10-02T11:39:55.980Z,1.30
2022-10-02T11:42:42.477Z,1.90
2022-10-02T11:45:24.020Z,1.87
2022-10-02T11:47:53.645Z,1.77
2022-10-02T11:50:23.698Z,1.33
2022-10-02T11:52:53.439Z,1.52
2022-10-02T11:55:53.303Z,1.90
2022-10-02T11:58:45.472Z,2.03
2022-10-02T12:01:53.111Z,2.40
2022-10-02T12:05:03.278Z,2.22
2022-10-02T12:08:03.557Z,1.58
2022-10-02T12:10:42.712Z,2.38
2022-10-02T12:13:15.940Z,1.75
2022-10-02T12:15:44.096Z,1.40
2022-10-02T12:18:29.341Z,1.77
2022-10-02T12:21:27.102Z,1.70
2022-10-02T12:24:54.987Z,1.42
2022-10-02T12:27:45.412Z,1.52
2022-10-02T12:30:20.321Z,1.70
2022-10-02T12:33:07.416Z,1.52
2022-10-02T12:35:54.540Z,1.50
2022-10-02T12:38:51.023Z,1.38
2022-10-02T12:41:46.691Z,1.20
2022-10-02T12:44:37.573Z,1.73
2022-10-02T12:47:26.953Z,1.30
2022-10-02T12:50:09.096Z,1.75
2022-10-02T12:53:07.094Z,1.35
2022-10-02T12:56:01.400Z,1.65
2022-10-02T12:58:40.073Z,1.20
2022-10-02T13:01:31.717Z,1.63
2022-10-02T13:04:34.947Z,1.50
2022-10-02T13:07:20.838Z,1.33
2022-10-02T13:10:05.983Z,1.42
2022-10-02T13:12:42.719Z,1.38
2022-10-02T13:15:25.072Z,1.95
2022-10-02T13:17:58.853Z,1.67
2022-10-02T13:20:39.970Z,1.30
2022-10-02T13:23:31.148Z,1.42
2022-10-02T13:26:13.397Z,1.52
2022-10-02T13:28:43.130Z,1.42
2022-10-02T13:31:36.920Z,1.38
2022-10-02T13:34:37.706Z,1.40
2022-10-02T13:37:15.723Z,1.20
2022-10-02T13:39:59.641Z,1.33
2022-10-02T13:42:58.556Z,1.23
2022-10-02T13:45:36.088Z,2.00
2022-10-02T13:48:24.492Z,1.40
2022-10-02T13:51:22.015Z,1.20
2022-10-02T13:54:04.160Z,1.63
2022-10-02T13:56:40.270Z,1.10
2022-10-02T13:59:39.641Z,1.88
2022-10-02T14:02:41.081Z,1.60
2022-10-02T14:05:17.237Z,1.55
2022-10-02T14:08:13.196Z,1.55
2022-10-02T14:10:42.974Z,1.67
2022-10-02T14:13:16.250Z,1.15
2022-10-02T14:16:32.204Z,1.60
2022-10-02T14:19:24.869Z,1.23
2022-10-02T14:22:12.615Z,1.38
2022-10-02T14:25:07.436Z,1.35
2022-10-02T14:27:55.670Z,1.58
2022-10-02T14:33:36.916Z,1.45
2022-10-02T14:36:09.893Z,1.52
2022-10-02T14:39:09.376Z,1.27
2022-10-02T14:41:49.325Z,1.42
2022-10-02T14:44:31.508Z,1.23
2022-10-02T14:47:42.401Z,1.08
2022-10-02T14:50:18.956Z,1.65
2022-10-02T14:52:49.290Z,1.25
2022-10-02T14:55:25.907Z,1.33
2022-10-02T14:58:30.268Z,1.45
2022-10-02T15:01:15.552Z,2.20
2022-10-02T15:04:08.376Z,1.30
2022-10-02T15:06:56.344Z,1.58
2022-10-02T15:09:43.356Z,1.30
2022-10-02T15:12:15.376Z,0.90
2022-10-02T15:15:07.667Z,1.48
2022-10-02T15:17:53.248Z,1.58
2022-10-02T15:20:40.618Z,1.48
2022-10-02T15:23:24.582Z,1.20
2022-10-02T15:26:19.893Z,1.20
2022-10-02T15:29:13.577Z,0.90
2022-10-02T15:32:03.482Z,1.15
2022-10-02T15:34:49.641Z,1.40
2022-10-02T15:37:36.262Z,1.60
2022-10-02T15:40:46.903Z,1.50
2022-10-02T15:43:17.226Z,1.38
2022-10-02T15:46:12.068Z,1.40
2022-10-02T15:49:08.941Z,1.50
2022-10-02T15:51:51.753Z,1.08
2022-10-02T15:54:38.362Z,1.30
2022-10-02T15:57:51.424Z,1.50
2022-10-02T16:00:20.757Z,1.67
2022-10-02T16:03:06.667Z,1.40
2022-10-02T16:05:48.765Z,1.30
2022-10-02T16:08:41.041Z,1.30
2022-10-02T16:11:44.707Z,1.85
2022-10-02T16:14:15.676Z,2.00
2022-10-02T16:17:04.631Z,1.70
2022-10-02T16:20:03.284Z,1.65
2022-10-02T16:23:08.759Z,1.20
2022-10-02T16:25:49.186Z,1.20
2022-10-02T16:28:47.894Z,1.70
2022-10-02T16:31:33.674Z,4.15
2022-10-02T16:34:35.661Z,6.00
2022-10-02T16:37:24.931Z,6.95
2022-10-02T16:40:03.842Z,6.47
2022-10-02T16:43:13.021Z,5.30
2022-10-02T16:46:31.462Z,4.88
2022-10-02T16:49:16.959Z,6.80
2022-10-02T16:52:02.153Z,7.07
2022-10-02T16:54:43.533Z,6.78
2022-10-02T16:57:50.112Z,6.35
2022-10-02T17:00:35.241Z,4.68
2022-10-02T17:03:34.593Z,4.22
2022-10-02T17:06:24.520Z,4.65
2022-10-02T17:09:05.842Z,4.28
2022-10-02T17:12:03.540Z,7.53
2022-10-02T17:14:39.343Z,9.95
2022-10-02T17:17:15.485Z,9.00
2022-10-02T17:19:54.355Z,8.35
2022-10-02T17:22:38.036Z,12.00
2022-10-02T17:25:23.105Z,16.13
2022-10-02T17:28:21.980Z,27.30
2022-10-02T17:31:01.126Z,52.00
2022-10-02T17:33:45.321Z,59.17
2022-10-02T17:36:27.227Z,61.25
2022-10-02T17:39:15.854Z,62.78
2022-10-02T17:42:02.918Z,65.55
2022-10-02T17:44:55.211Z,74.88
2022-10-02T17:47:40.875Z,80.18
2022-10-02T17:50:19.486Z,77.50
2022-10-02T17:53:10.132Z,64.50
2022-10-02T17:56:14.956Z,54.78
2022-10-02T17:59:13.317Z,40.05
2022-10-02T18:02:19.839Z,27.27
2022-10-02T18:05:05.468Z,18.40
2022-10-02T18:07:55.476Z,12.50
2022-10-02T18:10:41.008Z,8.93
2022-10-02T18:13:14.781Z,6.93
2022-10-02T18:16:02.939Z,5.40
2022-10-02T18:18:41.834Z,4.47
2022-10-02T18:21:37.489Z,4.28
2022-10-02T18:24:07.645Z,3.60
2022-10-02T18:26:49.498Z,5.30
2022-10-02T18:29:22.357Z,7.18
2022-10-02T18:32:15.869Z,9.07
2022-10-02T18:34:45.755Z,9.00
2022-10-02T18:37:32.183Z,9.10
2022-10-02T18:40:22.375Z,8.48
2022-10-02T18:43:16.650Z,6.85
2022-10-02T18:45:47.955Z,6.65
2022-10-02T18:48:23.849Z,6.15
2022-10-02T18:51:11.750Z,5.18
2022-10-02T18:54:03.261Z,4.10
2022-10-02T18:56:52.981Z,3.83
2022-10-02T18:59:29.364Z,2.95
2022-10-02T19:02:18.046Z,2.53
2022-10-02T19:04:54.636Z,2.30
2022-10-02T19:07:35.683Z,2.38
2022-10-02T19:10:27.294Z,2.17
2022-10-02T19:13:07.885Z,2.58
2022-10-02T19:15:35.184Z,2.85
2022-10-02T19:18:15.909Z,2.40
2022-10-02T19:20:55.168Z,2.03
2022-10-02T19:23:24.993Z,1.83
2022-10-02T19:25:56.128Z,1.80
2022-10-02T19:28:27.599Z,2.00
2022-10-02T19:31:19.429Z,1.63
2022-10-02T19:33:51.957Z,1.63
2022-10-02T19:36:25.593Z,1.65
2022-10-02T19:39:05.696Z,1.67
2022-10-02T19:41:40.019Z,1.80
2022-10-02T19:44:20.272Z,1.67
2022-10-02T19:46:54.888Z,2.22
2022-10-02T19:49:30.881Z,1.67
2022-10-02T19:51:58.235Z,1.90
2022-10-02T19:54:36.529Z,1.83
2022-10-02T19:57:16.526Z,2.10
2022-10-02T19:59:53.149Z,2.00
2022-10-02T20:02:40.502Z,2.20
2022-10-02T20:05:12.851Z,1.90
2022-10-02T20:07:40.927Z,1.80
2022-10-02T20:10:15.840Z,1.88
2022-10-02T20:12:58.152Z,1.98
2022-10-02T20:16:00.136Z,1.85
2022-10-02T20:18:27.624Z,1.42
2022-10-02T20:21:06.639Z,1.65
2022-10-02T20:23:36.940Z,1.40
2022-10-02T20:26:08.879Z,1.67
2022-10-02T20:28:52.126Z,2.15
2022-10-02T20:31:31.098Z,1.92
2022-10-02T20:34:04.636Z,2.45
2022-10-02T20:36:48.025Z,2.13
2022-10-02T20:39:21.092Z,2.05
2022-10-02T20:42:14.837Z,2.00
2022-10-02T20:44:41.986Z,2.38
2022-10-02T20:47:19.665Z,2.28
2022-10-02T20:50:05.477Z,2.20
2022-10-02T20:52:41.739Z,2.33
2022-10-02T20:55:26.397Z,1.98
2022-10-02T20:58:18.278Z,1.90
2022-10-02T21:01:15.383Z,1.50
2022-10-02T21:04:01.029Z,1.98
2022-10-02T21:06:46.308Z,1.35
2022-10-02T21:09:37.073Z,1.30
2022-10-02T21:12:46.006Z,1.73
2022-10-02T21:15:18.796Z,1.17
2022-10-02T21:18:10.079Z,1.35
2022-10-02T21:20:58.446Z,2.17
2022-10-02T21:26:16.640Z,1.58
2022-10-02T21:29:01.410Z,1.27
2022-10-02T21:31:50.650Z,1.42
2022-10-02T21:34:23.865Z,1.70
2022-10-02T21:36:58.991Z,1.38
2022-10-02T21:39:50.165Z,1.83
2022-10-02T21:42:42.053Z,1.42
2022-10-02T21:45:41.205Z,1.77
2022-10-02T21:48:29.715Z,1.90
2022-10-02T21:51:47.062Z,2.00
2022-10-02T21:54:35.748Z,1.80
2022-10-02T21:57:25.667Z,1.50
2022-10-02T22:00:31.569Z,1.60
2022-10-02T22:03:23.424Z,1.30
2022-10-02T22:06:01.888Z,1.45
2022-10-02T22:08:33.865Z,1.52
2022-10-02T22:11:06.776Z,1.30
2022-10-02T22:13:41.010Z,1.95
2022-10-02T22:16:27.014Z,1.13
2022-10-02T22:18:57.355Z,1.40
2022-10-02T22:21:40.484Z,1.48
2022-10-02T22:24:43.738Z,1.35
2022-10-02T22:27:38.998Z,1.55
2022-10-02T22:30:06.940Z,1.48
2022-10-02T22:33:13.614Z,1.30
2022-10-02T22:36:01.643Z,1.20
2022-10-02T22:38:56.410Z,1.50
2022-10-02T22:41:33.974Z,1.10
2022-10-02T22:44:28.889Z,1.20
2022-10-02T22:47:15.156Z,1.40
2022-10-02T22:49:50.541Z,1.65
2022-10-02T22:52:30.159Z,1.40
2022-10-02T22:55:03.096Z,1.38
2022-10-02T22:58:04.657Z,1.90
2022-10-02T23:00:57.261Z,1.30
2022-10-02T23:03:44.821Z,1.67
2022-10-02T23:06:22.528Z,1.40
2022-10-02T23:09:03.345Z,1.60
2022-10-02T23:11:44.238Z,1.45
2022-10-02T23:14:26.791Z,1.30
2022-10-02T23:17:04.217Z,1.20
2022-10-02T23:20:10.406Z,1.52
2022-10-02T23:22:57.252Z,1.48
2022-10-02T23:25:31.134Z,1.63
2022-10-02T23:28:15.221Z,1.58
2022-10-02T23:30:48.913Z,1.20
2022-10-02T23:33:38.370Z,1.35
2022-10-02T23:36:33.737Z,1.23
2022-10-02T23:39:26.593Z,0.98
2022-10-02T23:41:56.544Z,1.48
2022-10-02T23:44:43.105Z,1.45
2022-10-02T23:47:16.722Z,1.38
2022-10-02T23:49:55.886Z,1.60
2022-10-02T23:52:52.427Z,1.20
2022-10-02T23:55:41.859Z,1.10
2022-10-02T23:58:38.727Z,1.15
